createdAt,value
2022-12-27T00:00:30.583Z,8.65
2022-12-27T00:05:32.226Z,10.38
2022-12-27T00:10:33.833Z,10.20
2022-12-27T00:15:35.734Z,10.38
2022-12-27T00:20:37.329Z,11.30
2022-12-27T00:25:38.907Z,8.13
2022-12-27T00:30:40.530Z,9.77
2022-12-27T00:35:42.133Z,5.97
2022-12-27T00:40:43.819Z,9.93
2022-12-27T00:45:45.558Z,6.57
2022-12-27T00:50:47.780Z,8.80
2022-12-27T00:55:49.438Z,10.43
2022-12-27T01:00:51.864Z,7.63
2022-12-27T01:05:53.543Z,9.38
2022-12-27T01:10:55.141Z,8.02
2022-12-27T01:15:57.227Z,7.15
2022-12-27T01:20:58.833Z,10.50
2022-12-27T01:26:02.577Z,7.90
2022-12-27T01:31:13.644Z,18.10
2022-12-27T01:36:18.865Z,12.43
2022-12-27T01:41:47.152Z,10.48
2022-12-27T01:46:48.752Z,6.28
2022-12-27T01:51:50.361Z,8.27
2022-12-27T01:56:52.268Z,9.73
2022-12-27T02:01:54.034Z,9.75
2022-12-27T02:06:55.743Z,8.23
2022-12-27T02:11:58.554Z,7.53
2022-12-27T02:17:04.701Z,7.78
2022-12-27T02:22:31.968Z,4.78
2022-12-27T02:27:58.467Z,10.80
2022-12-27T02:33:05.527Z,9.27
2022-12-27T02:38:12.467Z,5.75
2022-12-27T02:43:33.219Z,7.50
2022-12-27T02:48:53.103Z,8.53
2022-12-27T02:54:11.058Z,8.52
2022-12-27T02:59:31.447Z,5.70
2022-12-27T03:05:03.146Z,7.22
2022-12-27T03:10:26.349Z,11.65
2022-12-27T03:15:57.909Z,11.43
2022-12-27T03:21:21.435Z,7.38
2022-12-27T03:26:24.687Z,7.45
2022-12-27T03:31:51.644Z,12.32
2022-12-27T03:37:16.695Z,7.90
2022-12-27T03:42:42.732Z,13.57
2022-12-27T03:47:53.458Z,12.30
2022-12-27T03:53:02.429Z,7.90
2022-12-27T03:58:04.516Z,12.77
2022-12-27T04:03:06.214Z,10.27
2022-12-27T04:08:26.374Z,12.45
2022-12-27T04:13:46.840Z,8.05
2022-12-27T04:19:06.888Z,10.48
2022-12-27T04:24:27.287Z,11.73
2022-12-27T04:29:47.808Z,8.25
2022-12-27T04:34:49.418Z,7.20
2022-12-27T04:40:11.266Z,11.70
2022-12-27T04:45:31.256Z,10.27
2022-12-27T04:50:52.153Z,8.15
2022-12-27T04:55:53.741Z,5.72
2022-12-27T05:01:17.473Z,10.98
2022-12-27T05:06:20.389Z,10.13
2022-12-27T05:11:40.790Z,6.82
2022-12-27T05:16:44.141Z,8.52
2022-12-27T05:22:04.307Z,7.35
2022-12-27T05:27:05.897Z,10.45
2022-12-27T05:32:12.750Z,10.40
2022-12-27T05:37:14.980Z,7.38
2022-12-27T05:42:16.576Z,10.68
2022-12-27T05:47:18.166Z,9.82
2022-12-27T05:52:19.945Z,9.90
2022-12-27T05:57:21.639Z,7.80
2022-12-27T06:02:23.362Z,7.50
2022-12-27T06:07:25.030Z,7.45
2022-12-27T06:12:27.759Z,8.02
2022-12-27T06:17:29.417Z,8.10
2022-12-27T06:22:31.023Z,8.82
2022-12-27T06:27:32.604Z,9.02
2022-12-27T06:32:35.129Z,7.45
2022-12-27T06:37:36.776Z,10.82
2022-12-27T06:42:38.381Z,8.75
2022-12-27T06:47:39.974Z,8.50
2022-12-27T06:52:41.571Z,10.88
2022-12-27T06:57:43.327Z,8.45
2022-12-27T07:02:44.982Z,9.93
2022-12-27T07:07:46.659Z,9.13
2022-12-27T07:12:48.308Z,12.65
2022-12-27T07:17:50.083Z,11.48
2022-12-27T07:22:51.667Z,10.52
2022-12-27T07:27:53.249Z,11.18
2022-12-27T07:32:55.151Z,22.50
2022-12-27T07:37:56.911Z,31.48
2022-12-27T07:42:58.511Z,28.40
2022-12-27T07:48:00.361Z,10.40
2022-12-27T07:53:02.588Z,9.10
2022-12-27T07:58:04.170Z,8.60
2022-12-27T08:03:05.863Z,8.63
2022-12-27T08:08:07.847Z,12.90
2022-12-27T08:13:09.610Z,10.02
2022-12-27T08:18:13.915Z,12.40
2022-12-27T08:23:15.971Z,12.70
2022-12-27T08:28:18.532Z,19.00
2022-12-27T08:33:20.245Z,9.95
2022-12-27T08:38:22.483Z,9.65
2022-12-27T08:43:24.158Z,13.35
2022-12-27T08:48:25.767Z,11.10
2022-12-27T08:53:27.423Z,9.50
2022-12-27T08:58:29.046Z,9.32
2022-12-27T09:03:31.373Z,11.40
2022-12-27T09:08:33.149Z,10.85
2022-12-27T09:13:34.766Z,8.43
2022-12-27T09:18:36.960Z,13.02
2022-12-27T09:23:39.479Z,11.68
2022-12-27T09:28:41.460Z,9.60
2022-12-27T09:33:43.812Z,11.63
2022-12-27T09:38:46.396Z,9.18
2022-12-27T09:44:00.715Z,10.40
2022-12-27T09:49:03.716Z,9.02
2022-12-27T09:54:13.099Z,7.13
2022-12-27T09:59:25.199Z,8.85
2022-12-27T10:04:52.948Z,10.32
2022-12-27T10:10:12.675Z,11.90
2022-12-27T10:15:23.082Z,11.23
2022-12-27T10:20:43.706Z,14.43
2022-12-27T10:25:47.756Z,8.83
2022-12-27T10:30:49.503Z,11.73
2022-12-27T10:35:51.197Z,8.77
2022-12-27T10:41:17.396Z,8.43
2022-12-27T10:46:25.210Z,17.63
2022-12-27T10:51:40.824Z,8.53
2022-12-27T10:56:44.357Z,8.80
2022-12-27T11:02:07.024Z,11.15
2022-12-27T11:07:12.883Z,11.57
2022-12-27T11:12:22.181Z,10.48
2022-12-27T11:17:46.602Z,10.98
2022-12-27T11:22:55.901Z,9.77
2022-12-27T11:28:03.188Z,9.25
2022-12-27T11:33:22.704Z,13.93
2022-12-27T11:38:28.202Z,13.15
2022-12-27T11:43:38.683Z,18.85
2022-12-27T11:48:45.816Z,14.25
2022-12-27T11:54:12.392Z,10.32
2022-12-27T11:59:25.659Z,9.77
2022-12-27T12:04:45.632Z,9.85
2022-12-27T12:10:05.446Z,9.95
2022-12-27T12:15:36.840Z,9.40
2022-12-27T12:21:05.457Z,8.23
2022-12-27T12:26:17.538Z,9.63
2022-12-27T12:31:37.923Z,12.27
2022-12-27T12:37:09.697Z,11.05
2022-12-27T12:42:18.707Z,13.30
2022-12-27T12:47:29.612Z,8.40
2022-12-27T12:53:14.981Z,16.85
2022-12-27T12:58:38.743Z,14.25
2022-12-27T13:03:56.435Z,18.63
2022-12-27T13:09:50.343Z,15.18
2022-12-27T13:15:20.529Z,15.93
2022-12-27T13:20:41.568Z,24.55
2022-12-27T13:25:52.097Z,8.82
2022-12-27T13:31:15.601Z,8.35
2022-12-27T13:36:48.828Z,9.68
2022-12-27T13:42:16.627Z,9.70
2022-12-27T13:47:41.578Z,9.15
2022-12-27T13:53:07.922Z,7.63
2022-12-27T13:58:27.858Z,8.73
2022-12-27T14:03:35.219Z,9.55
2022-12-27T14:08:54.873Z,8.38
2022-12-27T14:13:58.415Z,10.30
2022-12-27T14:19:03.186Z,9.18
2022-12-27T14:24:26.528Z,9.40
2022-12-27T14:29:50.040Z,7.45
2022-12-27T14:35:00.627Z,8.05
2022-12-27T14:40:36.889Z,8.95
2022-12-27T14:45:56.976Z,7.70
2022-12-27T14:51:58.835Z,9.63
2022-12-27T14:57:10.198Z,11.48
2022-12-27T15:02:27.415Z,12.93
2022-12-27T15:07:44.216Z,10.20
2022-12-27T15:12:51.723Z,9.07
2022-12-27T15:18:17.968Z,11.45
2022-12-27T15:23:44.354Z,12.70
2022-12-27T15:29:09.638Z,13.75
2022-12-27T15:34:23.193Z,9.80
2022-12-27T15:39:33.780Z,16.10
2022-12-27T15:44:42.802Z,13.80
2022-12-27T15:50:10.394Z,12.15
2022-12-27T15:55:48.445Z,12.85
2022-12-27T16:01:22.035Z,13.05
2022-12-27T16:06:36.235Z,10.80
2022-12-27T16:12:02.215Z,9.85
2022-12-27T16:17:26.478Z,9.75
2022-12-27T16:22:39.286Z,10.82
2022-12-27T16:27:43.472Z,10.10
2022-12-27T16:32:49.783Z,11.15
2022-12-27T16:37:53.951Z,22.60
2022-12-27T16:42:58.490Z,38.53
2022-12-27T16:48:06.351Z,32.85
2022-12-27T16:53:32.119Z,10.45
2022-12-27T16:58:37.513Z,13.88
2022-12-27T17:03:39.032Z,8.98
2022-12-27T17:08:40.977Z,15.93
2022-12-27T17:13:54.662Z,11.05
2022-12-27T17:19:01.635Z,18.70
2022-12-27T17:24:07.550Z,15.88
2022-12-27T17:29:29.802Z,15.27
2022-12-27T17:34:47.649Z,11.75
2022-12-27T17:40:18.352Z,14.38
2022-12-27T17:45:31.059Z,8.68
2022-12-27T17:50:33.104Z,10.07
2022-12-27T17:55:53.503Z,10.60
2022-12-27T18:00:59.095Z,13.50
2022-12-27T18:06:00.831Z,9.75
2022-12-27T18:11:05.180Z,13.35
2022-12-27T18:16:32.940Z,9.02
2022-12-27T18:21:34.635Z,11.50
2022-12-27T18:26:42.029Z,17.65
2022-12-27T18:31:53.529Z,11.55
2022-12-27T18:37:05.617Z,9.20
2022-12-27T18:42:35.474Z,11.02
2022-12-27T18:47:46.570Z,10.20
2022-12-27T18:52:54.749Z,13.88
2022-12-27T18:58:07.955Z,15.50
2022-12-27T19:03:15.602Z,13.45
2022-12-27T19:08:20.215Z,19.35
2022-12-27T19:13:27.589Z,20.92
2022-12-27T19:18:37.076Z,29.08
2022-12-27T19:23:43.216Z,22.08
2022-12-27T19:28:45.560Z,18.60
2022-12-27T19:33:58.204Z,15.55
2022-12-27T19:39:00.591Z,15.57
2022-12-27T19:44:03.487Z,14.88
2022-12-27T19:49:40.098Z,17.90
2022-12-27T19:59:28.169Z,19.45
2022-12-27T20:04:30.083Z,15.60
2022-12-27T20:09:31.768Z,14.80
2022-12-27T20:14:33.399Z,15.18
2022-12-27T20:19:35.183Z,12.10
2022-12-27T20:24:37.967Z,16.35
2022-12-27T20:29:39.609Z,18.95
2022-12-27T20:34:41.194Z,17.58
2022-12-27T20:39:42.799Z,16.88
2022-12-27T20:44:44.400Z,15.77
2022-12-27T20:49:46.155Z,13.70
2022-12-27T20:54:47.824Z,14.75
2022-12-27T20:59:49.446Z,18.85
2022-12-27T21:04:51.024Z,17.80
2022-12-27T21:09:52.655Z,13.27
2022-12-27T21:14:54.286Z,19.63
2022-12-27T21:19:55.952Z,13.80
2022-12-27T21:24:57.551Z,17.95
2022-12-27T21:29:59.178Z,20.77
2022-12-27T21:35:00.825Z,18.92
2022-12-27T21:40:02.501Z,20.90
2022-12-27T21:45:04.460Z,18.20
2022-12-27T21:50:06.397Z,19.90
2022-12-27T21:55:08.354Z,20.58
2022-12-27T22:00:10.785Z,21.38
2022-12-27T22:05:12.370Z,19.30
2022-12-27T22:10:13.989Z,20.23
2022-12-27T22:15:15.676Z,43.05
2022-12-27T22:20:17.298Z,27.42
2022-12-27T22:25:18.915Z,24.38
2022-12-27T22:30:20.529Z,20.92
2022-12-27T22:35:22.137Z,26.65
2022-12-27T22:40:31.037Z,19.75
2022-12-27T22:45:50.340Z,22.95
2022-12-27T22:50:55.200Z,19.27
2022-12-27T22:55:56.794Z,20.20
2022-12-27T23:00:59.025Z,23.70
2022-12-27T23:06:00.854Z,25.10
2022-12-27T23:11:09.073Z,21.67
2022-12-27T23:16:10.943Z,23.25
2022-12-27T23:21:21.165Z,28.98
2022-12-27T23:26:26.977Z,22.13
2022-12-27T23:31:28.632Z,20.00
2022-12-27T23:36:34.290Z,19.50
2022-12-27T23:41:37.161Z,22.02
2022-12-27T23:46:38.797Z,25.77
2022-12-27T23:51:40.486Z,24.77
2022-12-27T23:56:42.072Z,22.80
